sensor_id;sensor_type;location;lat;lon;timestamp;temperature;humidity
27978;DHT22;15314;49.248;6.968;2022-10-16T00:00:32;16.80;99.90
27978;DHT22;15314;49.248;6.968;2022-10-16T00:01:34;16.80;99.90
27978;DHT22;15314;49.248;6.968;2022-10-16T00:02:35;16.80;99.90
27978;DHT22;15314;49.248;6.968;2022-10-16T00:03:36;16.90;99.90
27978;DHT22;15314;49.248;6.968;2022-10-16T00:04:37;16.80;99.90
27978;DHT22;15314;49.248;6.968;2022-10-16T00:05:42;16.80;99.90
27978;DHT22;15314;49.248;6.968;2022-10-16T00:06:43;16.80;99.90
27978;DHT22;15314;49.248;6.968;2022-10-16T00:07:43;16.80;99.90
27978;DHT22;15314;49.248;6.968;2022-10-16T00:08:44;16.80;99.90
27978;DHT22;15314;49.248;6.968;2022-10-16T00:09:45;16.80;99.90
27978;DHT22;15314;49.248;6.968;2022-10-16T00:10:46;16.80;99.90
27978;DHT22;15314;49.248;6.968;2022-10-16T00:11:47;16.80;99.90
27978;DHT22;15314;49.248;6.968;2022-10-16T00:12:47;16.80;99.90
27978;DHT22;15314;49.248;6.968;2022-10-16T00:13:50;16.80;99.90
27978;DHT22;15314;49.248;6.968;2022-10-16T00:14:52;16.80;99.90
27978;DHT22;15314;49.248;6.968;2022-10-16T00:15:55;16.80;99.90
27978;DHT22;15314;49.248;6.968;2022-10-16T00:16:56;16.80;99.90
27978;DHT22;15314;49.248;6.968;2022-10-16T00:17:56;16.80;99.90
27978;DHT22;15314;49.248;6.968;2022-10-16T00:18:57;16.80;99.90
27978;DHT22;15314;49.248;6.968;2022-10-16T00:19:58;16.80;99.90
27978;DHT22;15314;49.248;6.968;2022-10-16T00:21:10;16.80;99.90
27978;DHT22;15314;49.248;6.968;2022-10-16T00:22:11;16.80;99.90
27978;DHT22;15314;49.248;6.968;2022-10-16T00:23:11;16.80;99.90
27978;DHT22;15314;49.248;6.968;2022-10-16T00:24:12;16.80;99.90
27978;DHT22;15314;49.248;6.968;2022-10-16T00:25:12;16.70;99.90
27978;DHT22;15314;49.248;6.968;2022-10-16T00:26:16;16.70;99.90
27978;DHT22;15314;49.248;6.968;2022-10-16T00:27:17;16.80;99.90
27978;DHT22;15314;49.248;6.968;2022-10-16T00:28:17;16.80;99.90
27978;DHT22;15314;49.248;6.968;2022-10-16T00:29:18;16.80;99.90
27978;DHT22;15314;49.248;6.968;2022-10-16T00:30:19;16.80;99.90
27978;DHT22;15314;49.248;6.968;2022-10-16T00:31:21;16.80;99.90
27978;DHT22;15314;49.248;6.968;2022-10-16T00:32:22;16.80;99.90
27978;DHT22;15314;49.248;6.968;2022-10-16T00:33:22;16.80;99.90
27978;DHT22;15314;49.248;6.968;2022-10-16T00:34:23;16.80;99.90
27978;DHT22;15314;49.248;6.968;2022-10-16T00:35:23;16.80;99.90
27978;DHT22;15314;49.248;6.968;2022-10-16T00:36:25;16.80;99.90
27978;DHT22;15314;49.248;6.968;2022-10-16T00:37:26;16.80;99.90
27978;DHT22;15314;49.248;6.968;2022-10-16T00:38:27;16.70;99.90
27978;DHT22;15314;49.248;6.968;2022-10-16T00:39:27;16.80;99.90
27978;DHT22;15314;49.248;6.968;2022-10-16T00:40:28;16.80;99.90
27978;DHT22;15314;49.248;6.968;2022-10-16T00:41:29;16.80;99.90
27978;DHT22;15314;49.248;6.968;2022-10-16T00:42:30;16.80;99.90
27978;DHT22;15314;49.248;6.968;2022-10-16T00:45:08;16.70;99.90
27978;DHT22;15314;49.248;6.968;2022-10-16T00:46:28;16.70;99.90
27978;DHT22;15314;49.248;6.968;2022-10-16T00:47:40;16.70;99.90
27978;DHT22;15314;49.248;6.968;2022-10-16T00:48:49;16.60;99.90
27978;DHT22;15314;49.248;6.968;2022-10-16T00:49:55;16.60;99.90
27978;DHT22;15314;49.248;6.968;2022-10-16T00:50:57;16.60;99.90
27978;DHT22;15314;49.248;6.968;2022-10-16T00:51:58;16.60;99.90
27978;DHT22;15314;49.248;6.968;2022-10-16T00:53:00;16.70;99.90
27978;DHT22;15314;49.248;6.968;2022-10-16T00:54:09;16.70;99.90
27978;DHT22;15314;49.248;6.968;2022-10-16T00:55:10;16.70;99.90
27978;DHT22;15314;49.248;6.968;2022-10-16T00:56:11;16.60;99.90
27978;DHT22;15314;49.248;6.968;2022-10-16T00:57:13;16.70;99.90
27978;DHT22;15314;49.248;6.968;2022-10-16T00:58:13;16.70;99.90
27978;DHT22;15314;49.248;6.968;2022-10-16T00:59:18;16.70;99.90
27978;DHT22;15314;49.248;6.968;2022-10-16T01:00:22;16.70;99.90
27978;DHT22;15314;49.248;6.968;2022-10-16T01:01:23;16.70;99.90
27978;DHT22;15314;49.248;6.968;2022-10-16T01:02:24;16.70;99.90
27978;DHT22;15314;49.248;6.968;2022-10-16T01:03:29;16.70;99.90
27978;DHT22;15314;49.248;6.968;2022-10-16T01:04:56;16.60;99.90
27978;DHT22;15314;49.248;6.968;2022-10-16T01:06:29;16.50;99.90
27978;DHT22;15314;49.248;6.968;2022-10-16T01:11:39;16.50;99.90
27978;DHT22;15314;49.248;6.968;2022-10-16T01:12:47;16.50;99.90
27978;DHT22;15314;49.248;6.968;2022-10-16T01:13:54;16.50;99.90
27978;DHT22;15314;49.248;6.968;2022-10-16T01:15:05;16.50;99.90
27978;DHT22;15314;49.248;6.968;2022-10-16T01:16:15;16.50;99.90
27978;DHT22;15314;49.248;6.968;2022-10-16T01:17:20;16.50;99.90
27978;DHT22;15314;49.248;6.968;2022-10-16T01:18:32;16.50;99.90
27978;DHT22;15314;49.248;6.968;2022-10-16T01:21:08;16.60;99.90
27978;DHT22;15314;49.248;6.968;2022-10-16T01:22:10;16.60;99.90
27978;DHT22;15314;49.248;6.968;2022-10-16T01:23:28;16.60;99.90
27978;DHT22;15314;49.248;6.968;2022-10-16T01:24:39;16.60;99.90
27978;DHT22;15314;49.248;6.968;2022-10-16T01:28:14;16.70;99.90
27978;DHT22;15314;49.248;6.968;2022-10-16T01:29:23;16.70;99.90
27978;DHT22;15314;49.248;6.968;2022-10-16T01:30:30;16.70;99.90
27978;DHT22;15314;49.248;6.968;2022-10-16T01:31:36;16.80;99.90
27978;DHT22;15314;49.248;6.968;2022-10-16T01:34:05;16.70;99.90
27978;DHT22;15314;49.248;6.968;2022-10-16T01:36:23;16.70;99.90
27978;DHT22;15314;49.248;6.968;2022-10-16T01:37:48;16.70;99.90
27978;DHT22;15314;49.248;6.968;2022-10-16T01:38:52;16.60;99.90
27978;DHT22;15314;49.248;6.968;2022-10-16T01:39:57;16.60;99.90
27978;DHT22;15314;49.248;6.968;2022-10-16T01:41:08;16.60;99.90
27978;DHT22;15314;49.248;6.968;2022-10-16T01:42:23;16.50;99.90
27978;DHT22;15314;49.248;6.968;2022-10-16T01:43:28;16.50;99.90
27978;DHT22;15314;49.248;6.968;2022-10-16T01:44:33;16.50;99.90
27978;DHT22;15314;49.248;6.968;2022-10-16T01:45:36;16.50;99.90
27978;DHT22;15314;49.248;6.968;2022-10-16T01:46:42;16.50;99.90
27978;DHT22;15314;49.248;6.968;2022-10-16T01:47:43;16.50;99.90
27978;DHT22;15314;49.248;6.968;2022-10-16T01:48:45;16.50;99.90
27978;DHT22;15314;49.248;6.968;2022-10-16T01:49:46;16.50;99.90
27978;DHT22;15314;49.248;6.968;2022-10-16T01:51:01;16.60;99.90
27978;DHT22;15314;49.248;6.968;2022-10-16T01:52:07;16.50;99.90
27978;DHT22;15314;49.248;6.968;2022-10-16T01:53:12;16.50;99.90
27978;DHT22;15314;49.248;6.968;2022-10-16T01:54:14;16.60;99.90
27978;DHT22;15314;49.248;6.968;2022-10-16T01:55:21;16.50;99.90
27978;DHT22;15314;49.248;6.968;2022-10-16T01:56:24;16.50;99.90
27978;DHT22;15314;49.248;6.968;2022-10-16T01:57:26;16.50;99.90
27978;DHT22;15314;49.248;6.968;2022-10-16T01:58:29;16.50;99.90
27978;DHT22;15314;49.248;6.968;2022-10-16T01:59:40;16.60;99.90
27978;DHT22;15314;49.248;6.968;2022-10-16T02:00:44;16.60;99.90
27978;DHT22;15314;49.248;6.968;2022-10-16T02:01:54;16.60;99.90
27978;DHT22;15314;49.248;6.968;2022-10-16T02:02:57;16.60;99.90
27978;DHT22;15314;49.248;6.968;2022-10-16T02:04:04;16.70;99.90
27978;DHT22;15314;49.248;6.968;2022-10-16T02:05:44;16.60;99.90
27978;DHT22;15314;49.248;6.968;2022-10-16T02:06:45;16.60;99.90
27978;DHT22;15314;49.248;6.968;2022-10-16T02:07:46;16.60;99.90
27978;DHT22;15314;49.248;6.968;2022-10-16T02:08:47;16.60;99.90
27978;DHT22;15314;49.248;6.968;2022-10-16T02:09:47;16.60;99.90
27978;DHT22;15314;49.248;6.968;2022-10-16T02:10:51;16.50;99.90
27978;DHT22;15314;49.248;6.968;2022-10-16T02:11:54;16.50;99.90
27978;DHT22;15314;49.248;6.968;2022-10-16T02:13:00;16.50;99.90
27978;DHT22;15314;49.248;6.968;2022-10-16T02:14:05;16.50;99.90
27978;DHT22;15314;49.248;6.968;2022-10-16T02:15:06;16.40;99.90
27978;DHT22;15314;49.248;6.968;2022-10-16T02:16:08;16.30;99.90
27978;DHT22;15314;49.248;6.968;2022-10-16T02:17:15;16.20;99.90
27978;DHT22;15314;49.248;6.968;2022-10-16T02:18:16;16.20;99.90
27978;DHT22;15314;49.248;6.968;2022-10-16T02:19:17;16.20;99.90
27978;DHT22;15314;49.248;6.968;2022-10-16T02:20:25;16.20;99.90
27978;DHT22;15314;49.248;6.968;2022-10-16T02:22:42;16.20;99.90
27978;DHT22;15314;49.248;6.968;2022-10-16T02:25:25;16.30;99.90
27978;DHT22;15314;49.248;6.968;2022-10-16T02:26:46;16.30;99.90
27978;DHT22;15314;49.248;6.968;2022-10-16T02:29:02;16.30;99.90
27978;DHT22;15314;49.248;6.968;2022-10-16T02:31:20;16.30;99.90
27978;DHT22;15314;49.248;6.968;2022-10-16T02:32:25;16.30;99.90
27978;DHT22;15314;49.248;6.968;2022-10-16T02:33:29;16.30;99.90
27978;DHT22;15314;49.248;6.968;2022-10-16T02:34:32;16.30;99.90
27978;DHT22;15314;49.248;6.968;2022-10-16T02:35:33;16.30;99.90
27978;DHT22;15314;49.248;6.968;2022-10-16T02:36:35;16.30;99.90
27978;DHT22;15314;49.248;6.968;2022-10-16T02:37:38;16.30;99.90
27978;DHT22;15314;49.248;6.968;2022-10-16T02:38:41;16.40;99.90
27978;DHT22;15314;49.248;6.968;2022-10-16T02:39:42;16.40;99.90
27978;DHT22;15314;49.248;6.968;2022-10-16T02:40:42;16.50;99.90
27978;DHT22;15314;49.248;6.968;2022-10-16T02:41:43;16.50;99.90
27978;DHT22;15314;49.248;6.968;2022-10-16T02:42:44;16.50;99.90
27978;DHT22;15314;49.248;6.968;2022-10-16T02:43:44;16.50;99.90
27978;DHT22;15314;49.248;6.968;2022-10-16T02:44:45;16.50;99.90
27978;DHT22;15314;49.248;6.968;2022-10-16T02:45:46;16.50;99.90
27978;DHT22;15314;49.248;6.968;2022-10-16T02:46:46;16.50;99.90
27978;DHT22;15314;49.248;6.968;2022-10-16T02:47:47;16.50;99.90
27978;DHT22;15314;49.248;6.968;2022-10-16T02:48:48;16.60;99.90
27978;DHT22;15314;49.248;6.968;2022-10-16T02:49:49;16.60;99.90
27978;DHT22;15314;49.248;6.968;2022-10-16T02:50:52;16.60;99.90
27978;DHT22;15314;49.248;6.968;2022-10-16T02:51:53;16.50;99.90
27978;DHT22;15314;49.248;6.968;2022-10-16T02:52:53;16.50;99.90
27978;DHT22;15314;49.248;6.968;2022-10-16T02:53:54;16.50;99.90
27978;DHT22;15314;49.248;6.968;2022-10-16T02:54:54;16.40;99.90
27978;DHT22;15314;49.248;6.968;2022-10-16T02:55:55;16.30;99.90
27978;DHT22;15314;49.248;6.968;2022-10-16T02:56:55;16.20;99.90
27978;DHT22;15314;49.248;6.968;2022-10-16T02:57:56;16.20;99.90
27978;DHT22;15314;49.248;6.968;2022-10-16T02:58:57;16.20;99.90
27978;DHT22;15314;49.248;6.968;2022-10-16T02:59:58;16.20;99.90
27978;DHT22;15314;49.248;6.968;2022-10-16T03:00:58;16.20;99.90
27978;DHT22;15314;49.248;6.968;2022-10-16T03:01:59;16.20;99.90
27978;DHT22;15314;49.248;6.968;2022-10-16T03:02:59;16.10;99.90
27978;DHT22;15314;49.248;6.968;2022-10-16T03:04:00;16.00;99.90
27978;DHT22;15314;49.248;6.968;2022-10-16T03:05:01;16.10;99.90
27978;DHT22;15314;49.248;6.968;2022-10-16T03:06:01;16.10;99.90
27978;DHT22;15314;49.248;6.968;2022-10-16T03:07:03;16.00;99.90
27978;DHT22;15314;49.248;6.968;2022-10-16T03:08:04;16.10;99.90
27978;DHT22;15314;49.248;6.968;2022-10-16T03:09:04;16.10;99.90
27978;DHT22;15314;49.248;6.968;2022-10-16T03:10:05;16.10;99.90
27978;DHT22;15314;49.248;6.968;2022-10-16T03:11:06;16.20;99.90
27978;DHT22;15314;49.248;6.968;2022-10-16T03:12:07;16.20;99.90
27978;DHT22;15314;49.248;6.968;2022-10-16T03:13:07;16.20;99.90
27978;DHT22;15314;49.248;6.968;2022-10-16T03:14:08;16.20;99.90
27978;DHT22;15314;49.248;6.968;2022-10-16T03:15:09;16.20;99.90
27978;DHT22;15314;49.248;6.968;2022-10-16T03:16:09;16.20;99.90
27978;DHT22;15314;49.248;6.968;2022-10-16T03:17:10;16.20;99.90
27978;DHT22;15314;49.248;6.968;2022-10-16T03:18:11;16.20;99.90
27978;DHT22;15314;49.248;6.968;2022-10-16T03:19:11;16.20;99.90
27978;DHT22;15314;49.248;6.968;2022-10-16T03:20:14;16.30;99.90
27978;DHT22;15314;49.248;6.968;2022-10-16T03:21:15;16.20;99.90
27978;DHT22;15314;49.248;6.968;2022-10-16T03:22:17;16.20;99.90
27978;DHT22;15314;49.248;6.968;2022-10-16T03:23:17;16.20;99.90
27978;DHT22;15314;49.248;6.968;2022-10-16T03:24:18;16.30;99.90
27978;DHT22;15314;49.248;6.968;2022-10-16T03:25:18;16.30;99.90
27978;DHT22;15314;49.248;6.968;2022-10-16T03:26:19;16.40;99.90
27978;DHT22;15314;49.248;6.968;2022-10-16T03:27:19;16.30;99.90
27978;DHT22;15314;49.248;6.968;2022-10-16T03:28:20;16.40;99.90
27978;DHT22;15314;49.248;6.968;2022-10-16T03:29:21;16.40;99.90
27978;DHT22;15314;49.248;6.968;2022-10-16T03:30:21;16.40;99.90
27978;DHT22;15314;49.248;6.968;2022-10-16T03:31:22;16.40;99.90
27978;DHT22;15314;49.248;6.968;2022-10-16T03:32:22;16.40;99.90
27978;DHT22;15314;49.248;6.968;2022-10-16T03:33:25;16.40;99.90
27978;DHT22;15314;49.248;6.968;2022-10-16T03:34:26;16.40;99.90
27978;DHT22;15314;49.248;6.968;2022-10-16T03:35:26;16.30;99.90
27978;DHT22;15314;49.248;6.968;2022-10-16T03:36:27;16.40;99.90
27978;DHT22;15314;49.248;6.968;2022-10-16T03:37:27;16.40;99.90
27978;DHT22;15314;49.248;6.968;2022-10-16T03:38:28;16.40;99.90
27978;DHT22;15314;49.248;6.968;2022-10-16T03:39:29;16.40;99.90
27978;DHT22;15314;49.248;6.968;2022-10-16T03:40:29;16.40;99.90
27978;DHT22;15314;49.248;6.968;2022-10-16T03:41:32;16.40;99.90
27978;DHT22;15314;49.248;6.968;2022-10-16T03:42:33;16.50;99.90
27978;DHT22;15314;49.248;6.968;2022-10-16T03:43:34;16.50;99.90
27978;DHT22;15314;49.248;6.968;2022-10-16T03:44:34;16.50;99.90
27978;DHT22;15314;49.248;6.968;2022-10-16T03:45:35;16.50;99.90
27978;DHT22;15314;49.248;6.968;2022-10-16T03:46:35;16.50;99.90
27978;DHT22;15314;49.248;6.968;2022-10-16T03:47:36;16.40;99.90
27978;DHT22;15314;49.248;6.968;2022-10-16T03:48:37;16.30;99.90
27978;DHT22;15314;49.248;6.968;2022-10-16T03:49:37;16.30;99.90
27978;DHT22;15314;49.248;6.968;2022-10-16T03:50:38;16.20;99.90
27978;DHT22;15314;49.248;6.968;2022-10-16T03:51:38;16.20;99.90
27978;DHT22;15314;49.248;6.968;2022-10-16T03:52:39;16.20;99.90
27978;DHT22;15314;49.248;6.968;2022-10-16T03:53:40;16.20;99.90
27978;DHT22;15314;49.248;6.968;2022-10-16T03:54:40;16.20;99.90
27978;DHT22;15314;49.248;6.968;2022-10-16T03:55:42;16.20;99.90
27978;DHT22;15314;49.248;6.968;2022-10-16T03:56:42;16.20;99.90
27978;DHT22;15314;49.248;6.968;2022-10-16T03:57:43;16.20;99.90
27978;DHT22;15314;49.248;6.968;2022-10-16T03:58:43;16.20;99.90
27978;DHT22;15314;49.248;6.968;2022-10-16T03:59:44;16.10;99.90
27978;DHT22;15314;49.248;6.968;2022-10-16T04:00:45;16.10;99.90
27978;DHT22;15314;49.248;6.968;2022-10-16T04:01:47;16.10;99.90
27978;DHT22;15314;49.248;6.968;2022-10-16T04:02:48;16.00;99.90
27978;DHT22;15314;49.248;6.968;2022-10-16T04:03:49;16.10;99.90
27978;DHT22;15314;49.248;6.968;2022-10-16T04:04:49;16.10;99.90
27978;DHT22;15314;49.248;6.968;2022-10-16T04:05:50;16.10;99.90
27978;DHT22;15314;49.248;6.968;2022-10-16T04:06:51;16.20;99.90
27978;DHT22;15314;49.248;6.968;2022-10-16T04:07:52;16.30;99.90
27978;DHT22;15314;49.248;6.968;2022-10-16T04:08:52;16.30;99.90
27978;DHT22;15314;49.248;6.968;2022-10-16T04:09:53;16.30;99.90
27978;DHT22;15314;49.248;6.968;2022-10-16T04:10:53;16.40;99.90
27978;DHT22;15314;49.248;6.968;2022-10-16T04:11:54;16.30;99.90
27978;DHT22;15314;49.248;6.968;2022-10-16T04:12:55;16.40;99.90
27978;DHT22;15314;49.248;6.968;2022-10-16T04:13:56;16.40;99.90
27978;DHT22;15314;49.248;6.968;2022-10-16T04:14:57;16.40;99.90
27978;DHT22;15314;49.248;6.968;2022-10-16T04:15:57;16.40;99.90
27978;DHT22;15314;49.248;6.968;2022-10-16T04:16:58;16.40;99.90
27978;DHT22;15314;49.248;6.968;2022-10-16T04:17:58;16.40;99.90
27978;DHT22;15314;49.248;6.968;2022-10-16T04:18:59;16.40;99.90
27978;DHT22;15314;49.248;6.968;2022-10-16T04:19:59;16.50;99.90
27978;DHT22;15314;49.248;6.968;2022-10-16T04:21:04;16.50;99.90
27978;DHT22;15314;49.248;6.968;2022-10-16T04:22:05;16.50;99.90
27978;DHT22;15314;49.248;6.968;2022-10-16T04:23:06;16.50;99.90
27978;DHT22;15314;49.248;6.968;2022-10-16T04:24:06;16.50;99.90
27978;DHT22;15314;49.248;6.968;2022-10-16T04:25:07;16.50;99.90
27978;DHT22;15314;49.248;6.968;2022-10-16T04:26:08;16.50;99.90
27978;DHT22;15314;49.248;6.968;2022-10-16T04:27:10;16.50;99.90
27978;DHT22;15314;49.248;6.968;2022-10-16T04:28:11;16.50;99.90
27978;DHT22;15314;49.248;6.968;2022-10-16T04:29:12;16.50;99.90
27978;DHT22;15314;49.248;6.968;2022-10-16T04:30:13;16.50;99.90
27978;DHT22;15314;49.248;6.968;2022-10-16T04:31:13;16.50;99.90
27978;DHT22;15314;49.248;6.968;2022-10-16T04:32:14;16.60;99.90
27978;DHT22;15314;49.248;6.968;2022-10-16T04:33:15;16.50;99.90
27978;DHT22;15314;49.248;6.968;2022-10-16T04:34:16;16.60;99.90
27978;DHT22;15314;49.248;6.968;2022-10-16T04:35:17;16.50;99.90
27978;DHT22;15314;49.248;6.968;2022-10-16T04:36:18;16.50;99.90
27978;DHT22;15314;49.248;6.968;2022-10-16T04:37:22;16.50;99.90
27978;DHT22;15314;49.248;6.968;2022-10-16T04:38:23;16.40;99.90
27978;DHT22;15314;49.248;6.968;2022-10-16T04:39:24;16.30;99.90
27978;DHT22;15314;49.248;6.968;2022-10-16T04:40:24;16.40;99.90
27978;DHT22;15314;49.248;6.968;2022-10-16T04:41:25;16.40;99.90
27978;DHT22;15314;49.248;6.968;2022-10-16T04:42:25;16.30;99.90
27978;DHT22;15314;49.248;6.968;2022-10-16T04:43:26;16.40;99.90
27978;DHT22;15314;49.248;6.968;2022-10-16T04:44:27;16.40;99.90
27978;DHT22;15314;49.248;6.968;2022-10-16T04:45:27;16.40;99.90
27978;DHT22;15314;49.248;6.968;2022-10-16T04:46:28;16.40;99.90
27978;DHT22;15314;49.248;6.968;2022-10-16T04:47:28;16.40;99.90
27978;DHT22;15314;49.248;6.968;2022-10-16T04:48:29;16.40;99.90
27978;DHT22;15314;49.248;6.968;2022-10-16T04:49:29;16.50;99.90
27978;DHT22;15314;49.248;6.968;2022-10-16T04:50:30;16.50;99.90
27978;DHT22;15314;49.248;6.968;2022-10-16T04:51:31;16.40;99.90
27978;DHT22;15314;49.248;6.968;2022-10-16T04:52:31;16.50;99.90
27978;DHT22;15314;49.248;6.968;2022-10-16T04:53:32;16.40;99.90
27978;DHT22;15314;49.248;6.968;2022-10-16T04:54:33;16.40;99.90
27978;DHT22;15314;49.248;6.968;2022-10-16T04:55:34;16.30;99.90
27978;DHT22;15314;49.248;6.968;2022-10-16T04:56:35;16.30;99.90
27978;DHT22;15314;49.248;6.968;2022-10-16T04:57:43;16.30;99.90
27978;DHT22;15314;49.248;6.968;2022-10-16T04:58:43;16.20;99.90
27978;DHT22;15314;49.248;6.968;2022-10-16T04:59:44;16.10;99.90
27978;DHT22;15314;49.248;6.968;2022-10-16T05:00:45;16.10;99.90
27978;DHT22;15314;49.248;6.968;2022-10-16T05:01:46;16.10;99.90
27978;DHT22;15314;49.248;6.968;2022-10-16T05:02:47;16.10;99.90
27978;DHT22;15314;49.248;6.968;2022-10-16T05:03:47;16.20;99.90
27978;DHT22;15314;49.248;6.968;2022-10-16T05:04:48;16.30;99.90
27978;DHT22;15314;49.248;6.968;2022-10-16T05:05:49;16.20;99.90
27978;DHT22;15314;49.248;6.968;2022-10-16T05:06:49;16.30;99.90
27978;DHT22;15314;49.248;6.968;2022-10-16T05:07:50;16.30;99.90
27978;DHT22;15314;49.248;6.968;2022-10-16T05:08:51;16.30;99.90
27978;DHT22;15314;49.248;6.968;2022-10-16T05:09:52;16.30;99.90
27978;DHT22;15314;49.248;6.968;2022-10-16T05:10:53;16.30;99.90
27978;DHT22;15314;49.248;6.968;2022-10-16T05:11:54;16.20;99.90
27978;DHT22;15314;49.248;6.968;2022-10-16T05:12:54;16.30;99.90
27978;DHT22;15314;49.248;6.968;2022-10-16T05:13:55;16.30;99.90
27978;DHT22;15314;49.248;6.968;2022-10-16T05:14:55;16.40;99.90
27978;DHT22;15314;49.248;6.968;2022-10-16T05:15:58;16.30;99.90
27978;DHT22;15314;49.248;6.968;2022-10-16T05:17:00;16.40;99.90
27978;DHT22;15314;49.248;6.968;2022-10-16T05:18:00;16.40;99.90
27978;DHT22;15314;49.248;6.968;2022-10-16T05:19:01;16.40;99.90
27978;DHT22;15314;49.248;6.968;2022-10-16T05:20:02;16.50;99.90
27978;DHT22;15314;49.248;6.968;2022-10-16T05:21:03;16.50;99.90
27978;DHT22;15314;49.248;6.968;2022-10-16T05:22:04;16.50;99.90
27978;DHT22;15314;49.248;6.968;2022-10-16T05:23:05;16.50;99.90
27978;DHT22;15314;49.248;6.968;2022-10-16T05:24:05;16.50;99.90
27978;DHT22;15314;49.248;6.968;2022-10-16T05:25:06;16.40;99.90
27978;DHT22;15314;49.248;6.968;2022-10-16T05:26:07;16.30;99.90
27978;DHT22;15314;49.248;6.968;2022-10-16T05:27:08;16.30;99.90
27978;DHT22;15314;49.248;6.968;2022-10-16T05:28:08;16.20;99.90
27978;DHT22;15314;49.248;6.968;2022-10-16T05:29:09;16.20;99.90
27978;DHT22;15314;49.248;6.968;2022-10-16T05:30:10;16.30;99.90
27978;DHT22;15314;49.248;6.968;2022-10-16T05:31:10;16.30;99.90
27978;DHT22;15314;49.248;6.968;2022-10-16T05:32:11;16.30;99.90
27978;DHT22;15314;49.248;6.968;2022-10-16T05:33:12;16.20;99.90
27978;DHT22;15314;49.248;6.968;2022-10-16T05:34:12;16.20;99.90
27978;DHT22;15314;49.248;6.968;2022-10-16T05:35:13;16.20;99.90
27978;DHT22;15314;49.248;6.968;2022-10-16T05:36:13;16.20;99.90
27978;DHT22;15314;49.248;6.968;2022-10-16T05:37:14;16.20;99.90
27978;DHT22;15314;49.248;6.968;2022-10-16T05:38:15;16.20;99.90
27978;DHT22;15314;49.248;6.968;2022-10-16T05:39:16;16.20;99.90
27978;DHT22;15314;49.248;6.968;2022-10-16T05:40:17;16.20;99.90
27978;DHT22;15314;49.248;6.968;2022-10-16T05:41:18;16.30;99.90
27978;DHT22;15314;49.248;6.968;2022-10-16T05:42:21;16.20;99.90
27978;DHT22;15314;49.248;6.968;2022-10-16T05:43:22;16.20;99.90
27978;DHT22;15314;49.248;6.968;2022-10-16T05:44:23;16.30;99.90
27978;DHT22;15314;49.248;6.968;2022-10-16T05:45:24;16.30;99.90
27978;DHT22;15314;49.248;6.968;2022-10-16T05:46:24;16.30;99.90
27978;DHT22;15314;49.248;6.968;2022-10-16T05:47:25;16.40;99.90
27978;DHT22;15314;49.248;6.968;2022-10-16T05:48:26;16.40;99.90
27978;DHT22;15314;49.248;6.968;2022-10-16T05:49:26;16.50;99.90
27978;DHT22;15314;49.248;6.968;2022-10-16T05:50:27;16.50;99.90
27978;DHT22;15314;49.248;6.968;2022-10-16T05:51:28;16.50;99.90
27978;DHT22;15314;49.248;6.968;2022-10-16T05:52:28;16.40;99.90
27978;DHT22;15314;49.248;6.968;2022-10-16T05:53:31;16.50;99.90
27978;DHT22;15314;49.248;6.968;2022-10-16T05:54:31;16.50;99.90
27978;DHT22;15314;49.248;6.968;2022-10-16T05:55:32;16.40;99.90
27978;DHT22;15314;49.248;6.968;2022-10-16T05:56:32;16.40;99.90
27978;DHT22;15314;49.248;6.968;2022-10-16T05:57:33;16.30;99.90
27978;DHT22;15314;49.248;6.968;2022-10-16T05:58:35;16.30;99.90
27978;DHT22;15314;49.248;6.968;2022-10-16T05:59:36;16.20;99.90
27978;DHT22;15314;49.248;6.968;2022-10-16T06:00:37;16.20;99.90
27978;DHT22;15314;49.248;6.968;2022-10-16T06:01:37;16.20;99.90
27978;DHT22;15314;49.248;6.968;2022-10-16T06:02:38;16.20;99.90
27978;DHT22;15314;49.248;6.968;2022-10-16T06:03:39;16.20;99.90
27978;DHT22;15314;49.248;6.968;2022-10-16T06:04:40;16.10;99.90
27978;DHT22;15314;49.248;6.968;2022-10-16T06:05:41;16.10;99.90
27978;DHT22;15314;49.248;6.968;2022-10-16T06:06:43;16.10;99.90
27978;DHT22;15314;49.248;6.968;2022-10-16T06:07:43;16.00;99.90
27978;DHT22;15314;49.248;6.968;2022-10-16T06:08:45;16.10;99.90
27978;DHT22;15314;49.248;6.968;2022-10-16T06:09:52;16.10;99.90
27978;DHT22;15314;49.248;6.968;2022-10-16T06:11:07;16.20;99.90
27978;DHT22;15314;49.248;6.968;2022-10-16T06:12:08;16.20;99.90
27978;DHT22;15314;49.248;6.968;2022-10-16T06:13:09;16.20;99.90
27978;DHT22;15314;49.248;6.968;2022-10-16T06:14:09;16.30;99.90
27978;DHT22;15314;49.248;6.968;2022-10-16T06:15:10;16.30;99.90
27978;DHT22;15314;49.248;6.968;2022-10-16T06:16:11;16.30;99.90
27978;DHT22;15314;49.248;6.968;2022-10-16T06:17:13;16.30;99.90
27978;DHT22;15314;49.248;6.968;2022-10-16T06:18:14;16.30;99.90
27978;DHT22;15314;49.248;6.968;2022-10-16T06:19:14;16.20;99.90
27978;DHT22;15314;49.248;6.968;2022-10-16T06:20:16;16.20;99.90
27978;DHT22;15314;49.248;6.968;2022-10-16T06:21:19;16.20;99.90
27978;DHT22;15314;49.248;6.968;2022-10-16T06:22:21;16.20;99.90
27978;DHT22;15314;49.248;6.968;2022-10-16T06:23:21;16.20;99.90
27978;DHT22;15314;49.248;6.968;2022-10-16T06:24:22;16.10;99.90
27978;DHT22;15314;49.248;6.968;2022-10-16T06:25:23;16.10;99.90
27978;DHT22;15314;49.248;6.968;2022-10-16T06:26:26;16.10;99.90
27978;DHT22;15314;49.248;6.968;2022-10-16T06:27:26;16.20;99.90
27978;DHT22;15314;49.248;6.968;2022-10-16T06:28:27;16.20;99.90
27978;DHT22;15314;49.248;6.968;2022-10-16T06:29:27;16.20;99.90
27978;DHT22;15314;49.248;6.968;2022-10-16T06:30:28;16.20;99.90
27978;DHT22;15314;49.248;6.968;2022-10-16T06:31:29;16.20;99.90
27978;DHT22;15314;49.248;6.968;2022-10-16T06:32:31;16.30;99.90
27978;DHT22;15314;49.248;6.968;2022-10-16T06:33:31;16.20;99.90
27978;DHT22;15314;49.248;6.968;2022-10-16T06:34:32;16.30;99.90
27978;DHT22;15314;49.248;6.968;2022-10-16T06:35:33;16.30;99.90
27978;DHT22;15314;49.248;6.968;2022-10-16T06:36:33;16.30;99.90
27978;DHT22;15314;49.248;6.968;2022-10-16T06:37:34;16.30;99.90
27978;DHT22;15314;49.248;6.968;2022-10-16T06:38:35;16.40;99.90
27978;DHT22;15314;49.248;6.968;2022-10-16T06:39:35;16.40;99.90
27978;DHT22;15314;49.248;6.968;2022-10-16T06:40:36;16.50;99.90
27978;DHT22;15314;49.248;6.968;2022-10-16T06:41:36;16.40;99.90
27978;DHT22;15314;49.248;6.968;2022-10-16T06:42:44;16.50;99.90
27978;DHT22;15314;49.248;6.968;2022-10-16T06:43:44;16.60;99.90
27978;DHT22;15314;49.248;6.968;2022-10-16T06:44:45;16.40;99.90
27978;DHT22;15314;49.248;6.968;2022-10-16T06:45:54;16.30;99.90
27978;DHT22;15314;49.248;6.968;2022-10-16T06:46:55;16.40;99.90
27978;DHT22;15314;49.248;6.968;2022-10-16T06:47:55;16.40;99.90
27978;DHT22;15314;49.248;6.968;2022-10-16T06:48:56;16.40;99.90
27978;DHT22;15314;49.248;6.968;2022-10-16T06:49:56;16.50;99.90
27978;DHT22;15314;49.248;6.968;2022-10-16T06:51:10;16.50;99.90